sensor_id;sensor_type;location;lat;lon;timestamp;P1;durP1;ratioP1;P2;durP2;ratioP2
47659;SDS011;33403;43.608;1.458;2023-08-06T00:02:22;5.70;;;2.60;;
47659;SDS011;33403;43.608;1.458;2023-08-06T00:04:48;4.70;;;2.60;;
47659;SDS011;33403;43.608;1.458;2023-08-06T00:07:14;6.18;;;2.85;;
47659;SDS011;33403;43.608;1.458;2023-08-06T00:09:39;6.43;;;2.70;;
47659;SDS011;33403;43.608;1.458;2023-08-06T00:12:05;5.50;;;3.00;;
47659;SDS011;33403;43.608;1.458;2023-08-06T00:14:31;3.55;;;2.42;;
47659;SDS011;33403;43.608;1.458;2023-08-06T00:16:56;4.28;;;2.60;;
47659;SDS011;33403;43.608;1.458;2023-08-06T00:19:23;6.50;;;2.92;;
47659;SDS011;33403;43.608;1.458;2023-08-06T00:21:48;5.45;;;3.10;;
47659;SDS011;33403;43.608;1.458;2023-08-06T00:24:14;4.68;;;2.70;;
47659;SDS011;33403;43.608;1.458;2023-08-06T00:26:39;8.48;;;2.70;;
47659;SDS011;33403;43.608;1.458;2023-08-06T00:29:05;6.15;;;3.10;;
47659;SDS011;33403;43.608;1.458;2023-08-06T00:31:31;5.82;;;2.60;;
47659;SDS011;33403;43.608;1.458;2023-08-06T00:33:56;5.75;;;3.00;;
47659;SDS011;33403;43.608;1.458;2023-08-06T00:36:22;8.63;;;3.00;;
47659;SDS011;33403;43.608;1.458;2023-08-06T00:38:48;6.80;;;2.83;;
47659;SDS011;33403;43.608;1.458;2023-08-06T00:41:13;7.82;;;3.30;;
47659;SDS011;33403;43.608;1.458;2023-08-06T00:43:39;6.32;;;2.92;;
47659;SDS011;33403;43.608;1.458;2023-08-06T00:46:05;7.07;;;2.78;;
47659;SDS011;33403;43.608;1.458;2023-08-06T00:48:31;7.05;;;3.00;;
47659;SDS011;33403;43.608;1.458;2023-08-06T00:50:56;8.00;;;3.35;;
47659;SDS011;33403;43.608;1.458;2023-08-06T00:53:22;7.72;;;3.10;;
47659;SDS011;33403;43.608;1.458;2023-08-06T00:55:48;7.30;;;3.00;;
47659;SDS011;33403;43.608;1.458;2023-08-06T00:58:15;6.65;;;2.83;;
47659;SDS011;33403;43.608;1.458;2023-08-06T01:00:41;5.13;;;2.88;;
47659;SDS011;33403;43.608;1.458;2023-08-06T01:03:07;9.40;;;3.05;;
47659;SDS011;33403;43.608;1.458;2023-08-06T01:05:33;9.10;;;2.85;;
47659;SDS011;33403;43.608;1.458;2023-08-06T01:08:06;6.60;;;2.85;;
47659;SDS011;33403;43.608;1.458;2023-08-06T01:14:13;7.72;;;2.65;;
47659;SDS011;33403;43.608;1.458;2023-08-06T01:16:46;5.93;;;2.40;;
47659;SDS011;33403;43.608;1.458;2023-08-06T01:19:16;4.93;;;2.50;;
47659;SDS011;33403;43.608;1.458;2023-08-06T01:21:42;7.45;;;2.78;;
47659;SDS011;33403;43.608;1.458;2023-08-06T01:24:07;7.07;;;2.60;;
47659;SDS011;33403;43.608;1.458;2023-08-06T01:26:35;6.50;;;2.30;;
47659;SDS011;33403;43.608;1.458;2023-08-06T01:29:08;8.48;;;2.65;;
47659;SDS011;33403;43.608;1.458;2023-08-06T01:31:36;13.40;;;3.13;;
47659;SDS011;33403;43.608;1.458;2023-08-06T01:34:03;9.80;;;2.55;;
47659;SDS011;33403;43.608;1.458;2023-08-06T01:36:32;11.27;;;2.83;;
47659;SDS011;33403;43.608;1.458;2023-08-06T01:38:58;10.35;;;2.38;;
47659;SDS011;33403;43.608;1.458;2023-08-06T01:41:25;12.52;;;2.95;;
47659;SDS011;33403;43.608;1.458;2023-08-06T01:43:50;12.88;;;2.70;;
47659;SDS011;33403;43.608;1.458;2023-08-06T01:46:16;11.25;;;2.88;;
47659;SDS011;33403;43.608;1.458;2023-08-06T01:48:42;10.20;;;2.60;;
47659;SDS011;33403;43.608;1.458;2023-08-06T01:51:08;10.80;;;2.65;;
47659;SDS011;33403;43.608;1.458;2023-08-06T01:53:34;13.02;;;2.83;;
47659;SDS011;33403;43.608;1.458;2023-08-06T01:55:59;12.77;;;2.67;;
47659;SDS011;33403;43.608;1.458;2023-08-06T01:58:25;11.98;;;2.25;;
47659;SDS011;33403;43.608;1.458;2023-08-06T02:00:50;17.08;;;3.15;;
47659;SDS011;33403;43.608;1.458;2023-08-06T02:03:16;9.45;;;2.58;;
47659;SDS011;33403;43.608;1.458;2023-08-06T02:05:42;11.95;;;2.75;;
47659;SDS011;33403;43.608;1.458;2023-08-06T02:08:07;10.20;;;2.22;;
47659;SDS011;33403;43.608;1.458;2023-08-06T02:10:33;8.13;;;2.40;;
47659;SDS011;33403;43.608;1.458;2023-08-06T02:12:59;12.55;;;2.72;;
47659;SDS011;33403;43.608;1.458;2023-08-06T02:15:25;9.32;;;2.60;;
47659;SDS011;33403;43.608;1.458;2023-08-06T02:17:50;12.05;;;2.50;;
47659;SDS011;33403;43.608;1.458;2023-08-06T02:20:16;12.10;;;2.60;;
47659;SDS011;33403;43.608;1.458;2023-08-06T02:22:41;9.27;;;2.40;;
47659;SDS011;33403;43.608;1.458;2023-08-06T02:25:07;11.63;;;2.38;;
47659;SDS011;33403;43.608;1.458;2023-08-06T02:27:33;10.52;;;2.42;;
47659;SDS011;33403;43.608;1.458;2023-08-06T02:29:58;10.68;;;2.40;;
47659;SDS011;33403;43.608;1.458;2023-08-06T02:32:24;12.77;;;2.15;;
47659;SDS011;33403;43.608;1.458;2023-08-06T02:34:50;11.27;;;2.40;;
47659;SDS011;33403;43.608;1.458;2023-08-06T02:37:15;8.85;;;2.35;;
47659;SDS011;33403;43.608;1.458;2023-08-06T02:39:41;11.77;;;2.60;;
47659;SDS011;33403;43.608;1.458;2023-08-06T02:42:08;10.65;;;2.80;;
47659;SDS011;33403;43.608;1.458;2023-08-06T02:44:34;12.45;;;2.65;;
47659;SDS011;33403;43.608;1.458;2023-08-06T02:47:00;9.70;;;2.40;;
47659;SDS011;33403;43.608;1.458;2023-08-06T02:49:26;10.68;;;2.53;;
47659;SDS011;33403;43.608;1.458;2023-08-06T02:51:52;12.90;;;2.72;;
47659;SDS011;33403;43.608;1.458;2023-08-06T02:54:18;8.35;;;2.38;;
47659;SDS011;33403;43.608;1.458;2023-08-06T02:56:47;11.68;;;2.95;;
47659;SDS011;33403;43.608;1.458;2023-08-06T02:59:12;10.68;;;2.50;;
47659;SDS011;33403;43.608;1.458;2023-08-06T03:01:38;11.50;;;2.63;;
47659;SDS011;33403;43.608;1.458;2023-08-06T03:04:05;11.65;;;2.55;;
47659;SDS011;33403;43.608;1.458;2023-08-06T03:06:30;12.05;;;2.55;;
47659;SDS011;33403;43.608;1.458;2023-08-06T03:08:56;9.50;;;2.13;;
47659;SDS011;33403;43.608;1.458;2023-08-06T03:11:22;11.57;;;2.42;;
47659;SDS011;33403;43.608;1.458;2023-08-06T03:13:48;11.35;;;2.10;;
47659;SDS011;33403;43.608;1.458;2023-08-06T03:16:13;9.98;;;2.15;;
47659;SDS011;33403;43.608;1.458;2023-08-06T03:18:39;9.63;;;2.10;;
47659;SDS011;33403;43.608;1.458;2023-08-06T03:21:05;10.48;;;2.33;;
47659;SDS011;33403;43.608;1.458;2023-08-06T03:23:31;9.95;;;2.28;;
47659;SDS011;33403;43.608;1.458;2023-08-06T03:26:00;10.10;;;2.25;;
47659;SDS011;33403;43.608;1.458;2023-08-06T03:28:27;11.88;;;2.28;;
47659;SDS011;33403;43.608;1.458;2023-08-06T03:31:02;9.02;;;2.00;;
47659;SDS011;33403;43.608;1.458;2023-08-06T03:33:29;12.40;;;2.42;;
47659;SDS011;33403;43.608;1.458;2023-08-06T03:35:54;12.93;;;2.20;;
47659;SDS011;33403;43.608;1.458;2023-08-06T03:38:20;12.02;;;2.63;;
47659;SDS011;33403;43.608;1.458;2023-08-06T03:40:47;10.35;;;2.08;;
47659;SDS011;33403;43.608;1.458;2023-08-06T03:43:13;12.20;;;2.38;;
47659;SDS011;33403;43.608;1.458;2023-08-06T03:45:39;15.20;;;2.58;;
47659;SDS011;33403;43.608;1.458;2023-08-06T03:48:05;11.10;;;2.10;;
47659;SDS011;33403;43.608;1.458;2023-08-06T03:50:31;12.25;;;2.60;;
47659;SDS011;33403;43.608;1.458;2023-08-06T03:52:57;12.27;;;2.50;;
47659;SDS011;33403;43.608;1.458;2023-08-06T03:55:22;11.00;;;2.10;;
47659;SDS011;33403;43.608;1.458;2023-08-06T03:57:48;7.75;;;2.22;;
47659;SDS011;33403;43.608;1.458;2023-08-06T04:00:13;11.15;;;2.13;;
47659;SDS011;33403;43.608;1.458;2023-08-06T04:02:39;9.98;;;2.03;;
47659;SDS011;33403;43.608;1.458;2023-08-06T04:05:05;14.65;;;2.58;;
47659;SDS011;33403;43.608;1.458;2023-08-06T04:07:31;13.63;;;2.47;;
47659;SDS011;33403;43.608;1.458;2023-08-06T04:09:57;10.10;;;2.08;;
47659;SDS011;33403;43.608;1.458;2023-08-06T04:12:24;9.20;;;2.00;;
47659;SDS011;33403;43.608;1.458;2023-08-06T04:14:50;9.90;;;2.35;;
47659;SDS011;33403;43.608;1.458;2023-08-06T04:17:17;12.93;;;2.58;;
47659;SDS011;33403;43.608;1.458;2023-08-06T04:19:45;14.00;;;2.70;;
47659;SDS011;33403;43.608;1.458;2023-08-06T04:22:12;10.05;;;2.47;;
47659;SDS011;33403;43.608;1.458;2023-08-06T04:24:38;15.27;;;2.40;;
47659;SDS011;33403;43.608;1.458;2023-08-06T04:27:04;12.15;;;2.15;;
47659;SDS011;33403;43.608;1.458;2023-08-06T04:29:30;10.68;;;2.08;;
47659;SDS011;33403;43.608;1.458;2023-08-06T04:31:55;13.38;;;2.67;;
47659;SDS011;33403;43.608;1.458;2023-08-06T04:34:21;14.07;;;2.88;;
47659;SDS011;33403;43.608;1.458;2023-08-06T04:36:46;12.30;;;2.22;;
47659;SDS011;33403;43.608;1.458;2023-08-06T04:39:12;11.85;;;2.42;;
47659;SDS011;33403;43.608;1.458;2023-08-06T04:41:38;9.68;;;2.40;;
47659;SDS011;33403;43.608;1.458;2023-08-06T04:44:04;13.95;;;2.83;;
47659;SDS011;33403;43.608;1.458;2023-08-06T04:46:30;14.68;;;3.33;;
47659;SDS011;33403;43.608;1.458;2023-08-06T04:48:55;11.82;;;2.45;;
47659;SDS011;33403;43.608;1.458;2023-08-06T04:51:21;11.18;;;2.75;;
47659;SDS011;33403;43.608;1.458;2023-08-06T04:53:46;9.52;;;2.20;;
47659;SDS011;33403;43.608;1.458;2023-08-06T04:56:12;13.18;;;2.60;;
47659;SDS011;33403;43.608;1.458;2023-08-06T04:58:38;10.45;;;2.33;;
47659;SDS011;33403;43.608;1.458;2023-08-06T05:01:03;11.80;;;2.65;;
47659;SDS011;33403;43.608;1.458;2023-08-06T05:03:29;10.18;;;2.25;;
47659;SDS011;33403;43.608;1.458;2023-08-06T05:05:54;11.63;;;2.65;;
47659;SDS011;33403;43.608;1.458;2023-08-06T05:08:20;14.60;;;2.55;;
47659;SDS011;33403;43.608;1.458;2023-08-06T05:10:46;11.23;;;2.72;;
47659;SDS011;33403;43.608;1.458;2023-08-06T05:13:11;12.50;;;2.20;;
47659;SDS011;33403;43.608;1.458;2023-08-06T05:15:37;11.18;;;2.45;;
47659;SDS011;33403;43.608;1.458;2023-08-06T05:18:04;11.40;;;2.70;;
47659;SDS011;33403;43.608;1.458;2023-08-06T05:20:30;10.40;;;2.33;;
47659;SDS011;33403;43.608;1.458;2023-08-06T05:22:56;10.50;;;2.00;;
47659;SDS011;33403;43.608;1.458;2023-08-06T05:25:21;10.68;;;2.50;;
47659;SDS011;33403;43.608;1.458;2023-08-06T05:27:47;14.00;;;2.50;;
47659;SDS011;33403;43.608;1.458;2023-08-06T05:30:13;10.07;;;2.67;;
47659;SDS011;33403;43.608;1.458;2023-08-06T05:32:38;12.02;;;2.40;;
47659;SDS011;33403;43.608;1.458;2023-08-06T05:35:04;9.98;;;2.55;;
47659;SDS011;33403;43.608;1.458;2023-08-06T05:37:31;13.38;;;3.05;;
47659;SDS011;33403;43.608;1.458;2023-08-06T05:39:56;9.38;;;2.22;;
47659;SDS011;33403;43.608;1.458;2023-08-06T05:42:22;10.35;;;2.05;;
47659;SDS011;33403;43.608;1.458;2023-08-06T05:44:48;13.60;;;2.85;;
47659;SDS011;33403;43.608;1.458;2023-08-06T05:47:13;10.23;;;2.15;;
47659;SDS011;33403;43.608;1.458;2023-08-06T05:49:39;10.40;;;2.33;;
47659;SDS011;33403;43.608;1.458;2023-08-06T05:52:04;9.98;;;2.38;;
47659;SDS011;33403;43.608;1.458;2023-08-06T05:54:31;11.52;;;2.55;;
47659;SDS011;33403;43.608;1.458;2023-08-06T05:56:57;10.85;;;1.80;;
47659;SDS011;33403;43.608;1.458;2023-08-06T05:59:22;11.43;;;2.13;;
47659;SDS011;33403;43.608;1.458;2023-08-06T06:01:48;11.30;;;1.85;;
47659;SDS011;33403;43.608;1.458;2023-08-06T06:04:14;12.45;;;2.20;;
47659;SDS011;33403;43.608;1.458;2023-08-06T06:06:39;10.13;;;2.40;;
47659;SDS011;33403;43.608;1.458;2023-08-06T06:09:06;7.85;;;1.88;;
47659;SDS011;33403;43.608;1.458;2023-08-06T06:11:32;9.43;;;2.00;;
47659;SDS011;33403;43.608;1.458;2023-08-06T06:13:58;9.20;;;1.73;;
47659;SDS011;33403;43.608;1.458;2023-08-06T06:16:24;9.65;;;2.45;;
47659;SDS011;33403;43.608;1.458;2023-08-06T06:18:49;12.30;;;2.22;;
47659;SDS011;33403;43.608;1.458;2023-08-06T06:21:15;10.35;;;2.13;;
47659;SDS011;33403;43.608;1.458;2023-08-06T06:23:40;8.60;;;2.28;;
47659;SDS011;33403;43.608;1.458;2023-08-06T06:26:06;9.93;;;2.35;;
47659;SDS011;33403;43.608;1.458;2023-08-06T06:28:32;8.80;;;2.10;;
47659;SDS011;33403;43.608;1.458;2023-08-06T06:31:00;14.63;;;2.97;;
47659;SDS011;33403;43.608;1.458;2023-08-06T06:33:27;11.43;;;2.30;;
47659;SDS011;33403;43.608;1.458;2023-08-06T06:35:52;12.02;;;2.38;;
47659;SDS011;33403;43.608;1.458;2023-08-06T06:38:18;13.73;;;2.50;;
47659;SDS011;33403;43.608;1.458;2023-08-06T06:40:44;11.32;;;2.40;;
47659;SDS011;33403;43.608;1.458;2023-08-06T06:43:17;12.90;;;2.55;;
47659;SDS011;33403;43.608;1.458;2023-08-06T06:45:43;13.65;;;2.30;;
47659;SDS011;33403;43.608;1.458;2023-08-06T06:48:09;11.60;;;1.95;;
47659;SDS011;33403;43.608;1.458;2023-08-06T06:50:35;12.55;;;2.58;;
47659;SDS011;33403;43.608;1.458;2023-08-06T06:53:01;9.60;;;2.03;;
47659;SDS011;33403;43.608;1.458;2023-08-06T06:55:27;14.65;;;2.20;;
47659;SDS011;33403;43.608;1.458;2023-08-06T06:57:52;9.80;;;2.40;;
47659;SDS011;33403;43.608;1.458;2023-08-06T07:00:18;9.98;;;1.98;;
47659;SDS011;33403;43.608;1.458;2023-08-06T07:02:44;9.15;;;2.10;;
47659;SDS011;33403;43.608;1.458;2023-08-06T07:05:09;14.80;;;2.33;;
47659;SDS011;33403;43.608;1.458;2023-08-06T07:07:35;11.82;;;2.40;;
47659;SDS011;33403;43.608;1.458;2023-08-06T07:10:02;13.25;;;2.60;;
47659;SDS011;33403;43.608;1.458;2023-08-06T07:12:28;10.80;;;2.30;;
47659;SDS011;33403;43.608;1.458;2023-08-06T07:14:54;9.52;;;2.38;;
47659;SDS011;33403;43.608;1.458;2023-08-06T07:17:20;10.80;;;1.98;;
47659;SDS011;33403;43.608;1.458;2023-08-06T07:19:45;10.98;;;2.30;;
47659;SDS011;33403;43.608;1.458;2023-08-06T07:22:11;10.85;;;2.35;;
47659;SDS011;33403;43.608;1.458;2023-08-06T07:24:37;11.77;;;1.95;;
47659;SDS011;33403;43.608;1.458;2023-08-06T07:27:02;11.80;;;2.08;;
47659;SDS011;33403;43.608;1.458;2023-08-06T07:29:28;15.02;;;2.45;;
47659;SDS011;33403;43.608;1.458;2023-08-06T07:31:54;7.95;;;1.83;;
47659;SDS011;33403;43.608;1.458;2023-08-06T07:34:20;10.88;;;2.10;;
47659;SDS011;33403;43.608;1.458;2023-08-06T07:36:46;7.72;;;2.17;;
47659;SDS011;33403;43.608;1.458;2023-08-06T07:39:12;11.40;;;2.08;;
47659;SDS011;33403;43.608;1.458;2023-08-06T07:41:38;12.13;;;2.20;;
47659;SDS011;33403;43.608;1.458;2023-08-06T07:44:04;11.88;;;1.90;;
47659;SDS011;33403;43.608;1.458;2023-08-06T07:46:29;7.78;;;1.75;;
47659;SDS011;33403;43.608;1.458;2023-08-06T07:48:55;12.63;;;2.10;;
47659;SDS011;33403;43.608;1.458;2023-08-06T07:51:20;7.97;;;1.70;;
47659;SDS011;33403;43.608;1.458;2023-08-06T07:53:46;8.02;;;2.03;;
47659;SDS011;33403;43.608;1.458;2023-08-06T07:56:12;12.10;;;2.42;;
47659;SDS011;33403;43.608;1.458;2023-08-06T07:58:37;8.77;;;2.08;;
47659;SDS011;33403;43.608;1.458;2023-08-06T08:01:03;8.10;;;2.00;;
47659;SDS011;33403;43.608;1.458;2023-08-06T08:03:30;9.98;;;1.90;;
47659;SDS011;33403;43.608;1.458;2023-08-06T08:05:56;9.23;;;1.88;;
47659;SDS011;33403;43.608;1.458;2023-08-06T08:08:22;9.57;;;2.15;;
47659;SDS011;33403;43.608;1.458;2023-08-06T08:10:48;10.52;;;2.00;;
47659;SDS011;33403;43.608;1.458;2023-08-06T08:13:14;11.63;;;2.00;;
47659;SDS011;33403;43.608;1.458;2023-08-06T08:15:40;9.90;;;1.85;;
47659;SDS011;33403;43.608;1.458;2023-08-06T08:18:05;10.48;;;2.00;;
47659;SDS011;33403;43.608;1.458;2023-08-06T08:20:31;8.00;;;1.85;;
47659;SDS011;33403;43.608;1.458;2023-08-06T08:23:01;10.45;;;2.08;;
47659;SDS011;33403;43.608;1.458;2023-08-06T08:25:27;8.02;;;1.80;;
47659;SDS011;33403;43.608;1.458;2023-08-06T08:27:53;8.50;;;1.80;;
47659;SDS011;33403;43.608;1.458;2023-08-06T08:30:20;10.05;;;2.05;;
47659;SDS011;33403;43.608;1.458;2023-08-06T08:32:47;7.55;;;1.90;;
47659;SDS011;33403;43.608;1.458;2023-08-06T08:35:13;6.40;;;1.70;;
47659;SDS011;33403;43.608;1.458;2023-08-06T08:37:41;8.93;;;2.08;;
47659;SDS011;33403;43.608;1.458;2023-08-06T08:40:07;8.48;;;1.63;;
47659;SDS011;33403;43.608;1.458;2023-08-06T08:42:33;8.80;;;1.77;;
47659;SDS011;33403;43.608;1.458;2023-08-06T08:44:59;8.25;;;1.85;;
47659;SDS011;33403;43.608;1.458;2023-08-06T08:47:25;5.97;;;1.65;;
47659;SDS011;33403;43.608;1.458;2023-08-06T08:49:54;6.85;;;1.88;;
47659;SDS011;33403;43.608;1.458;2023-08-06T08:52:22;8.90;;;1.85;;
47659;SDS011;33403;43.608;1.458;2023-08-06T08:54:50;7.88;;;1.98;;
47659;SDS011;33403;43.608;1.458;2023-08-06T08:57:18;5.82;;;1.58;;
47659;SDS011;33403;43.608;1.458;2023-08-06T08:59:44;8.48;;;1.85;;
47659;SDS011;33403;43.608;1.458;2023-08-06T09:02:11;9.23;;;1.77;;
47659;SDS011;33403;43.608;1.458;2023-08-06T09:04:40;7.93;;;1.77;;
47659;SDS011;33403;43.608;1.458;2023-08-06T09:07:07;6.88;;;1.63;;
47659;SDS011;33403;43.608;1.458;2023-08-06T09:09:37;7.65;;;1.50;;
47659;SDS011;33403;43.608;1.458;2023-08-06T09:12:09;7.03;;;1.50;;
47659;SDS011;33403;43.608;1.458;2023-08-06T09:14:37;8.35;;;1.98;;
47659;SDS011;33403;43.608;1.458;2023-08-06T09:17:03;8.63;;;1.90;;
47659;SDS011;33403;43.608;1.458;2023-08-06T09:19:30;7.40;;;1.95;;
47659;SDS011;33403;43.608;1.458;2023-08-06T09:21:56;7.00;;;1.73;;
47659;SDS011;33403;43.608;1.458;2023-08-06T09:24:22;9.23;;;1.95;;
47659;SDS011;33403;43.608;1.458;2023-08-06T09:26:48;7.00;;;1.85;;
47659;SDS011;33403;43.608;1.458;2023-08-06T09:29:14;9.57;;;1.77;;
47659;SDS011;33403;43.608;1.458;2023-08-06T09:31:43;8.80;;;1.92;;
47659;SDS011;33403;43.608;1.458;2023-08-06T09:34:11;6.85;;;1.90;;
47659;SDS011;33403;43.608;1.458;2023-08-06T09:36:41;8.23;;;2.15;;
47659;SDS011;33403;43.608;1.458;2023-08-06T09:39:16;6.10;;;1.98;;
47659;SDS011;33403;43.608;1.458;2023-08-06T09:41:46;8.07;;;1.92;;
47659;SDS011;33403;43.608;1.458;2023-08-06T09:44:16;9.57;;;1.77;;
47659;SDS011;33403;43.608;1.458;2023-08-06T09:46:46;8.00;;;1.77;;
47659;SDS011;33403;43.608;1.458;2023-08-06T09:49:17;7.35;;;1.98;;
47659;SDS011;33403;43.608;1.458;2023-08-06T09:51:44;7.80;;;1.80;;
47659;SDS011;33403;43.608;1.458;2023-08-06T09:54:14;6.22;;;1.55;;
47659;SDS011;33403;43.608;1.458;2023-08-06T09:56:41;9.02;;;1.90;;
47659;SDS011;33403;43.608;1.458;2023-08-06T09:59:08;6.72;;;1.55;;
47659;SDS011;33403;43.608;1.458;2023-08-06T10:01:34;7.40;;;1.75;;
47659;SDS011;33403;43.608;1.458;2023-08-06T10:04:04;6.65;;;1.60;;
47659;SDS011;33403;43.608;1.458;2023-08-06T10:06:35;8.10;;;1.73;;
47659;SDS011;33403;43.608;1.458;2023-08-06T10:09:02;5.18;;;1.45;;
47659;SDS011;33403;43.608;1.458;2023-08-06T10:11:28;5.32;;;1.48;;
47659;SDS011;33403;43.608;1.458;2023-08-06T10:13:57;7.88;;;1.67;;
47659;SDS011;33403;43.608;1.458;2023-08-06T10:16:47;7.45;;;1.70;;
47659;SDS011;33403;43.608;1.458;2023-08-06T10:19:13;7.72;;;1.77;;
47659;SDS011;33403;43.608;1.458;2023-08-06T10:21:41;7.05;;;1.55;;
47659;SDS011;33403;43.608;1.458;2023-08-06T10:24:27;6.25;;;1.55;;
47659;SDS011;33403;43.608;1.458;2023-08-06T10:26:56;6.47;;;1.40;;
47659;SDS011;33403;43.608;1.458;2023-08-06T10:29:36;5.90;;;2.35;;
47659;SDS011;33403;43.608;1.458;2023-08-06T10:32:02;7.40;;;1.90;;
47659;SDS011;33403;43.608;1.458;2023-08-06T10:37:24;7.70;;;1.70;;
47659;SDS011;33403;43.608;1.458;2023-08-06T10:40:03;7.70;;;1.63;;
47659;SDS011;33403;43.608;1.458;2023-08-06T10:42:31;6.35;;;1.70;;
47659;SDS011;33403;43.608;1.458;2023-08-06T10:47:41;4.55;;;1.73;;
47659;SDS011;33403;43.608;1.458;2023-08-06T10:50:10;4.10;;;1.70;;
47659;SDS011;33403;43.608;1.458;2023-08-06T10:52:43;4.95;;;1.60;;
47659;SDS011;33403;43.608;1.458;2023-08-06T10:55:10;6.47;;;1.98;;
47659;SDS011;33403;43.608;1.458;2023-08-06T10:57:36;8.23;;;2.05;;
47659;SDS011;33403;43.608;1.458;2023-08-06T11:00:05;5.25;;;1.50;;
47659;SDS011;33403;43.608;1.458;2023-08-06T11:02:33;6.28;;;1.85;;
47659;SDS011;33403;43.608;1.458;2023-08-06T11:05:09;6.80;;;2.03;;
47659;SDS011;33403;43.608;1.458;2023-08-06T11:07:35;6.15;;;1.90;;
47659;SDS011;33403;43.608;1.458;2023-08-06T11:10:05;6.78;;;1.63;;
47659;SDS011;33403;43.608;1.458;2023-08-06T11:12:32;5.80;;;1.80;;
47659;SDS011;33403;43.608;1.458;2023-08-06T11:14:58;6.60;;;2.25;;
47659;SDS011;33403;43.608;1.458;2023-08-06T11:17:25;7.35;;;1.80;;
47659;SDS011;33403;43.608;1.458;2023-08-06T11:19:53;2.97;;;1.40;;
47659;SDS011;33403;43.608;1.458;2023-08-06T11:22:20;5.38;;;1.70;;
47659;SDS011;33403;43.608;1.458;2023-08-06T11:24:47;7.53;;;1.80;;
47659;SDS011;33403;43.608;1.458;2023-08-06T11:27:16;5.80;;;1.65;;
47659;SDS011;33403;43.608;1.458;2023-08-06T11:29:42;8.35;;;1.80;;
47659;SDS011;33403;43.608;1.458;2023-08-06T11:32:09;6.55;;;1.60;;
47659;SDS011;33403;43.608;1.458;2023-08-06T11:34:35;9.05;;;2.15;;
47659;SDS011;33403;43.608;1.458;2023-08-06T11:37:04;8.00;;;1.83;;
47659;SDS011;33403;43.608;1.458;2023-08-06T11:39:34;5.40;;;1.88;;
47659;SDS011;33403;43.608;1.458;2023-08-06T11:42:02;5.00;;;1.80;;
47659;SDS011;33403;43.608;1.458;2023-08-06T11:44:32;7.60;;;1.85;;
47659;SDS011;33403;43.608;1.458;2023-08-06T11:47:00;4.65;;;1.98;;
47659;SDS011;33403;43.608;1.458;2023-08-06T11:49:41;4.82;;;1.60;;
47659;SDS011;33403;43.608;1.458;2023-08-06T11:52:15;4.97;;;1.92;;
47659;SDS011;33403;43.608;1.458;2023-08-06T11:57:32;6.22;;;2.00;;
47659;SDS011;33403;43.608;1.458;2023-08-06T12:00:09;5.57;;;2.00;;
47659;SDS011;33403;43.608;1.458;2023-08-06T12:02:38;6.05;;;2.00;;
47659;SDS011;33403;43.608;1.458;2023-08-06T12:10:13;4.82;;;1.90;;
47659;SDS011;33403;43.608;1.458;2023-08-06T12:12:39;4.50;;;1.73;;
47659;SDS011;33403;43.608;1.458;2023-08-06T12:15:06;6.43;;;1.70;;
47659;SDS011;33403;43.608;1.458;2023-08-06T12:17:33;4.25;;;1.42;;
47659;SDS011;33403;43.608;1.458;2023-08-06T12:19:59;5.65;;;1.50;;
47659;SDS011;33403;43.608;1.458;2023-08-06T12:22:25;6.82;;;1.80;;
47659;SDS011;33403;43.608;1.458;2023-08-06T12:24:50;6.60;;;1.80;;
47659;SDS011;33403;43.608;1.458;2023-08-06T12:27:16;5.95;;;1.50;;
47659;SDS011;33403;43.608;1.458;2023-08-06T12:29:43;5.55;;;1.60;;
47659;SDS011;33403;43.608;1.458;2023-08-06T12:32:10;5.25;;;2.10;;
47659;SDS011;33403;43.608;1.458;2023-08-06T12:34:37;6.07;;;1.77;;
47659;SDS011;33403;43.608;1.458;2023-08-06T12:37:03;3.58;;;1.70;;
47659;SDS011;33403;43.608;1.458;2023-08-06T12:39:29;6.00;;;2.05;;
47659;SDS011;33403;43.608;1.458;2023-08-06T12:41:56;4.00;;;1.25;;
47659;SDS011;33403;43.608;1.458;2023-08-06T12:44:23;3.80;;;1.23;;
47659;SDS011;33403;43.608;1.458;2023-08-06T12:46:49;4.65;;;1.40;;
47659;SDS011;33403;43.608;1.458;2023-08-06T12:49:16;6.60;;;2.42;;
47659;SDS011;33403;43.608;1.458;2023-08-06T12:51:42;4.07;;;1.70;;
47659;SDS011;33403;43.608;1.458;2023-08-06T12:54:08;5.07;;;1.85;;
47659;SDS011;33403;43.608;1.458;2023-08-06T12:56:34;3.00;;;1.38;;
47659;SDS011;33403;43.608;1.458;2023-08-06T12:58:59;6.60;;;1.83;;
47659;SDS011;33403;43.608;1.458;2023-08-06T13:01:25;4.22;;;1.50;;
47659;SDS011;33403;43.608;1.458;2023-08-06T13:03:51;3.78;;;1.38;;
47659;SDS011;33403;43.608;1.458;2023-08-06T13:06:16;6.85;;;2.10;;
47659;SDS011;33403;43.608;1.458;2023-08-06T13:08:42;6.50;;;2.63;;
47659;SDS011;33403;43.608;1.458;2023-08-06T13:11:07;5.63;;;1.50;;
47659;SDS011;33403;43.608;1.458;2023-08-06T13:13:33;4.93;;;1.50;;
47659;SDS011;33403;43.608;1.458;2023-08-06T13:15:59;5.03;;;1.52;;
47659;SDS011;33403;43.608;1.458;2023-08-06T13:18:24;5.82;;;1.63;;
47659;SDS011;33403;43.608;1.458;2023-08-06T13:20:52;4.40;;;1.40;;
47659;SDS011;33403;43.608;1.458;2023-08-06T13:23:19;3.67;;;1.20;;
47659;SDS011;33403;43.608;1.458;2023-08-06T13:25:45;4.07;;;1.52;;
47659;SDS011;33403;43.608;1.458;2023-08-06T13:28:11;5.88;;;1.13;;
47659;SDS011;33403;43.608;1.458;2023-08-06T13:30:36;7.45;;;1.58;;
47659;SDS011;33403;43.608;1.458;2023-08-06T13:33:10;5.78;;;1.60;;
47659;SDS011;33403;43.608;1.458;2023-08-06T13:35:36;6.40;;;1.30;;
47659;SDS011;33403;43.608;1.458;2023-08-06T13:38:02;5.22;;;1.50;;
47659;SDS011;33403;43.608;1.458;2023-08-06T13:40:28;3.88;;;1.73;;
47659;SDS011;33403;43.608;1.458;2023-08-06T13:42:55;6.72;;;1.33;;
47659;SDS011;33403;43.608;1.458;2023-08-06T13:45:21;4.95;;;1.50;;
47659;SDS011;33403;43.608;1.458;2023-08-06T13:47:47;5.75;;;1.40;;
47659;SDS011;33403;43.608;1.458;2023-08-06T13:50:12;7.60;;;1.48;;
47659;SDS011;33403;43.608;1.458;2023-08-06T13:52:38;9.27;;;1.83;;
47659;SDS011;33403;43.608;1.458;2023-08-06T13:55:04;5.68;;;1.65;;
47659;SDS011;33403;43.608;1.458;2023-08-06T13:57:30;3.38;;;1.30;;
47659;SDS011;33403;43.608;1.458;2023-08-06T13:59:56;5.80;;;1.60;;
47659;SDS011;33403;43.608;1.458;2023-08-06T14:02:22;5.05;;;1.38;;
47659;SDS011;33403;43.608;1.458;2023-08-06T14:04:48;4.65;;;1.58;;
47659;SDS011;33403;43.608;1.458;2023-08-06T14:07:13;7.03;;;2.00;;
47659;SDS011;33403;43.608;1.458;2023-08-06T14:09:39;6.50;;;1.40;;
47659;SDS011;33403;43.608;1.458;2023-08-06T14:12:05;4.05;;;1.35;;
47659;SDS011;33403;43.608;1.458;2023-08-06T14:14:31;6.03;;;1.52;;
47659;SDS011;33403;43.608;1.458;2023-08-06T14:16:57;3.83;;;1.50;;
47659;SDS011;33403;43.608;1.458;2023-08-06T14:19:23;4.18;;;1.52;;
47659;SDS011;33403;43.608;1.458;2023-08-06T14:21:49;6.97;;;1.60;;
47659;SDS011;33403;43.608;1.458;2023-08-06T14:24:14;5.25;;;1.40;;
47659;SDS011;33403;43.608;1.458;2023-08-06T14:26:40;4.70;;;1.50;;
47659;SDS011;33403;43.608;1.458;2023-08-06T14:29:06;3.40;;;1.50;;
47659;SDS011;33403;43.608;1.458;2023-08-06T14:31:31;4.65;;;1.73;;
47659;SDS011;33403;43.608;1.458;2023-08-06T14:33:57;6.22;;;1.70;;
47659;SDS011;33403;43.608;1.458;2023-08-06T14:36:23;4.50;;;1.50;;
47659;SDS011;33403;43.608;1.458;2023-08-06T14:38:48;5.00;;;1.50;;
47659;SDS011;33403;43.608;1.458;2023-08-06T14:41:14;4.95;;;1.58;;
47659;SDS011;33403;43.608;1.458;2023-08-06T14:43:39;5.57;;;1.60;;
47659;SDS011;33403;43.608;1.458;2023-08-06T14:46:05;5.10;;;1.50;;
47659;SDS011;33403;43.608;1.458;2023-08-06T14:48:31;6.07;;;1.73;;
47659;SDS011;33403;43.608;1.458;2023-08-06T14:50:57;6.10;;;1.50;;
47659;SDS011;33403;43.608;1.458;2023-08-06T14:53:22;3.92;;;1.35;;
47659;SDS011;33403;43.608;1.458;2023-08-06T14:55:48;4.43;;;1.77;;
47659;SDS011;33403;43.608;1.458;2023-08-06T14:58:14;5.45;;;1.50;;